KE0BZR Weather Reports


Display with metric or nautical units.
time (UTC)temp
F
wind
direction
speed
MPH
gust
MPH
rain 1hr
in
rain 24hr
in
rain mn
in
humidity
%
barometer
mb
20260906223009 89 360 4.0 15.0 0.00 0.00 0.00 33 1000.5
20260906221517 90 360 3.0 11.0 0.00 0.00 0.00 32 1000.7
20260906220012 89 360 1.0 8.0 0.00 0.00 0.00 33 1000.9
20260906214502 89 360 2.0 6.0 0.00 0.00 0.00 33 1001.2
20260906213003 89 360 3.0 11.0 0.00 0.00 0.00 32 1001.4
20260906211605 88 360 0.0 12.0 0.00 0.00 0.00 34 1001.8
20260906210058 87 360 0.0 6.0 0.00 0.00 0.00 34 1002.0
20260906204553 88 360 2.0 6.0 0.00 0.00 0.00 35 1002.2
20260906203052 87 360 3.0 8.0 0.00 0.00 0.00 34 1002.6
20260906201606 88 360 0.0 6.0 0.00 0.00 0.00 32 1002.6
20260906200048 87 360 0.0 8.0 0.00 0.00 0.00 32 1002.7
20260906194546 86 360 0.0 9.0 0.00 0.00 0.00 35 1002.8
20260906193044 86 360 0.0 4.0 0.00 0.00 0.00 32 1003.0
20260906191538 85 360 2.0 5.0 0.00 0.00 0.00 35 1003.3
20260906190043 84 360 2.0 8.0 0.00 0.00 0.00 37 1003.5
20260906184533 84 360 2.0 8.0 0.00 0.00 0.00 38 1003.8
20260906183045 82 360 3.0 8.0 0.00 0.00 0.00 38 1004.1
20260906181525 83 360 4.0 9.0 0.00 0.00 0.00 39 1004.3
20260906180022 82 360 0.0 5.0 0.00 0.00 0.00 40 1004.5
20260906174517 81 360 0.0 2.0 0.00 0.00 0.00 44 1004.8
20260906173013 80 360 0.0 0.0 0.00 0.00 0.00 46 1005.1
20260906171517 80 360 0.0 1.0 0.00 0.00 0.00 46 1005.4
20260906170005 79 360 0.0 0.0 0.00 0.00 0.00 46 1005.8
20260906164502 78 360 0.0 0.0 0.00 0.00 0.00 47 1005.9
20260906163106 77 360 0.0 1.0 0.00 0.00 0.00 51 1005.9
20260906161600 76 360 0.0 2.0 0.00 0.00 0.00 53 1005.8
20260906160052 75 360 0.0 3.0 0.00 0.00 0.00 56 1005.8
20260906154547 74 360 1.0 4.0 0.00 0.00 0.00 59 1005.8
20260906153043 73 360 0.0 4.0 0.00 0.00 0.00 63 1005.8
20260906151540 72 360 0.0 2.0 0.00 0.00 0.00 64 1005.9
20260906150037 71 360 0.0 3.0 0.00 0.00 0.00 68 1006.0
20260906144532 69 360 2.0 4.0 0.00 0.00 0.00 71 1006.1
20260906143028 68 360 0.0 4.0 0.00 0.00 0.00 73 1006.1
20260906141526 67 360 0.0 1.0 0.00 0.00 0.00 73 1006.1
20260906140035 66 360 0.0 1.0 0.00 0.00 0.00 73 1006.3
20260906134518 64 360 0.0 2.0 0.00 0.00 0.00 73 1006.2
20260906133015 63 360 1.0 3.0 0.00 0.00 0.00 75 1006.0
20260906131510 62 360 0.0 2.0 0.00 0.00 0.00 76 1006.0
20260906130006 61 360 0.0 2.0 0.00 0.00 0.00 76 1005.9
20260906124504 61 360 0.0 1.0 0.00 0.00 0.00 76 1005.8
20260906123102 62 360 0.0 1.0 0.00 0.00 0.00 74 1005.8
20260906121608 62 360 0.0 0.0 0.00 0.00 0.00 73 1005.8
20260906120058 63 360 0.0 1.0 0.00 0.00 0.00 73 1005.8
20260906114611 63 360 0.0 1.0 0.00 0.00 0.00 74 1005.8
20260906113058 63 360 0.0 1.0 0.00 0.00 0.00 76 1005.5
20260906111554 64 360 0.0 1.0 0.00 0.00 0.00 76 1005.6
20260906110052 64 360 0.0 2.0 0.00 0.00 0.00 76 1005.5
20260906104550 63 360 0.0 3.0 0.00 0.00 0.00 71 1005.5
20260906103048 64 360 1.0 3.0 0.00 0.00 0.00 66 1005.4
20260906101545 65 360 0.0 3.0 0.00 0.00 0.00 64 1005.4
20260906100042 65 360 0.0 4.0 0.00 0.00 0.00 61 1005.5
20260906094540 66 360 1.0 4.0 0.00 0.00 0.00 59 1005.5
20260906093038 67 360 0.0 1.0 0.00 0.00 0.00 56 1005.4
20260906091535 68 360 0.0 0.0 0.00 0.00 0.00 54 1005.3
20260906090031 69 360 0.0 3.0 0.00 0.00 0.00 53 1005.2
20260906084532 68 360 0.0 0.0 0.00 0.00 0.00 55 1005.1
20260906083028 69 360 1.0 4.0 0.00 0.00 0.00 54 1005.1
20260906081539 71 360 0.0 3.0 0.00 0.00 0.00 48 1004.7
20260906080025 70 360 2.0 8.0 0.00 0.00 0.00 49 1004.6
20260906074524 71 360 1.0 5.0 0.00 0.00 0.00 49 1004.5
20260906073023 71 360 4.0 9.0 0.00 0.00 0.00 50 1004.4
20260906071521 71 360 1.0 6.0 0.00 0.00 0.00 51 1004.4
20260906070020 71 360 2.0 5.0 0.00 0.00 0.00 52 1004.5
20260906064518 72 360 0.0 3.0 0.00 0.00 0.00 51 1004.6
20260906063012 73 360 2.0 4.0 0.00 0.00 0.00 48 1004.7
20260906061509 74 360 1.0 4.0 0.00 0.00 0.00 46 1004.9
20260906060015 74 360 0.0 3.0 0.00 0.00 0.00 47 1005.0
20260906054505 75 360 0.0 6.0 0.00 0.00 0.00 46 1005.0
20260906053013 75 360 2.0 5.0 0.00 0.00 0.00 44 1004.7
20260906051506 77 360 4.0 8.0 0.00 0.00 0.00 41 1005.5
20260906050016 77 360 0.0 5.0 0.00 0.00 0.00 41 1005.8
20260906044504 76 360 0.0 5.0 0.00 0.00 0.00 40 1005.8
20260906043101 76 360 0.0 1.0 0.00 0.00 0.00 39 1005.2
20260906041600 76 360 1.0 4.0 0.00 0.00 0.00 38 1004.7
20260906040059 75 360 0.0 0.0 0.00 0.00 0.00 39 1004.5
20260906034559 76 360 0.0 1.0 0.00 0.00 0.00 38 1004.4
20260906033058 77 360 3.0 9.0 0.00 0.00 0.00 36 1004.1
20260906031603 79 360 0.0 5.0 0.00 0.00 0.00 32 1003.9
20260906030057 78 360 0.0 4.0 0.00 0.00 0.00 33 1003.5
20260906024556 79 360 0.0 4.0 0.00 0.00 0.00 31 1003.1
20260906023059 81 360 0.0 0.0 0.00 0.00 0.00 31 1002.9
20260906021555 82 360 0.0 2.0 0.00 0.00 0.00 29 1002.8
20260906014554 82 360 1.0 5.0 0.00 0.00 0.00 28 1002.7
20260906013054 83 360 3.0 6.0 0.00 0.00 0.00 28 1002.4
20260906011553 83 360 2.0 6.0 0.00 0.00 0.00 28 1002.5
20260906010052 85 360 3.0 10.0 0.00 0.00 0.00 26 1002.4
20260906004552 86 360 5.0 13.0 0.00 0.00 0.00 24 1002.4
20260906003051 87 360 1.0 4.0 0.00 0.00 0.00 24 1002.4
20260906001551 88 360 2.0 5.0 0.00 0.00 0.00 23 1002.4
20260906000050 90 360 0.0 3.0 0.00 0.00 0.00 22 1002.2
20260905234549 90 360 0.0 0.0 0.00 0.00 0.00 20 1002.2
20260905233050 91 360 0.0 4.0 0.00 0.00 0.00 21 1002.2
20260905231548 92 360 1.0 3.0 0.00 0.00 0.00 20 1002.2
20260905230052 92 360 0.0 3.0 0.00 0.00 0.00 21 1002.1
20260905224602 91 360 1.0 6.0 0.00 0.00 0.00 21 1002.1